Time;durP1;ratioP1;P1;durP2;ratioP2;P2;SDS_P1;SDS_P2;PMS_P1;PMS_P2;Temp;Humidity;BMP_temperature;BMP_pressure;BME280_temperature;BME280_humidity;BME280_pressure;Samples;Min_cycle;Max_cycle;Signal;HPM_P1;HPM_P2
2023/04/25 00:01:53;;;;;;;2.88;2.13;;;;;;;;;;5017369;28;20624;-65
2023/04/25 00:04:18;;;;;;;2.65;2.17;;;;;;;;;;5009117;28;20034;-67
2023/04/25 00:06:43;;;;;;;2.33;1.80;;;;;;;;;;5017632;28;20037;-66
2023/04/25 00:09:09;;;;;;;3.03;2.07;;;;;;;;;;5002346;28;20276;-65
2023/04/25 00:11:35;;;;;;;2.83;2.08;;;;;;;;;;4972692;28;20379;-67
2023/04/25 00:14:02;;;;;;;3.63;1.83;;;;;;;;;;5019638;28;20480;-67
2023/04/25 00:16:28;;;;;;;4.15;2.10;;;;;;;;;;5006291;28;20030;-68
2023/04/25 00:18:54;;;;;;;2.60;2.03;;;;;;;;;;4972537;28;20487;-68
2023/04/25 00:21:19;;;;;;;2.50;1.92;;;;;;;;;;5006085;28;20112;-67
2023/04/25 00:23:45;;;;;;;3.25;2.28;;;;;;;;;;5006412;28;20049;-63
2023/04/25 00:26:11;;;;;;;2.72;2.13;;;;;;;;;;5014556;28;20152;-67
2023/04/25 00:28:37;;;;;;;2.88;1.73;;;;;;;;;;5010173;28;20034;-67
2023/04/25 00:31:02;;;;;;;3.17;2.10;;;;;;;;;;5011216;28;20148;-68
2023/04/25 00:33:27;;;;;;;2.20;1.67;;;;;;;;;;4999276;28;20033;-68
2023/04/25 00:35:53;;;;;;;3.07;1.90;;;;;;;;;;4988418;28;20289;-64
2023/04/25 00:38:18;;;;;;;3.47;1.90;;;;;;;;;;4988446;28;20068;-66
2023/04/25 00:40:43;;;;;;;2.23;1.73;;;;;;;;;;5013948;28;20482;-67
2023/04/25 00:43:08;;;;;;;2.65;1.90;;;;;;;;;;5020480;28;20041;-66
2023/04/25 00:45:34;;;;;;;2.57;2.10;;;;;;;;;;5017493;28;20034;-67
2023/04/25 00:47:59;;;;;;;2.30;1.70;;;;;;;;;;4993788;28;20403;-68
2023/04/25 00:50:24;;;;;;;3.03;2.03;;;;;;;;;;5005697;28;20346;-62
2023/04/25 00:52:49;;;;;;;2.20;1.70;;;;;;;;;;5006695;28;20813;-63
2023/04/25 00:55:15;;;;;;;2.70;2.05;;;;;;;;;;4998818;28;20339;-65
2023/04/25 00:57:41;;;;;;;2.38;1.77;;;;;;;;;;5019801;28;20136;-64
2023/04/25 01:00:06;;;;;;;2.35;1.70;;;;;;;;;;5017326;28;20415;-63
2023/04/25 01:02:32;;;;;;;3.13;2.10;;;;;;;;;;4991108;28;20065;-64
2023/04/25 01:04:57;;;;;;;2.45;1.80;;;;;;;;;;5010964;28;20080;-66
2023/04/25 01:07:22;;;;;;;2.60;2.00;;;;;;;;;;4992300;28;20129;-66
2023/04/25 01:09:47;;;;;;;3.03;2.00;;;;;;;;;;5012554;28;20140;-64
2023/04/25 01:12:14;;;;;;;2.00;1.60;;;;;;;;;;5012684;28;20125;-63
2023/04/25 01:14:39;;;;;;;2.30;1.80;;;;;;;;;;4983489;28;20358;-64
2023/04/25 01:17:05;;;;;;;2.53;1.85;;;;;;;;;;5005474;28;20418;-64
2023/04/25 01:19:30;;;;;;;2.38;1.80;;;;;;;;;;4999967;28;20481;-68
2023/04/25 01:21:55;;;;;;;2.85;1.83;;;;;;;;;;4971984;28;20038;-62
2023/04/25 01:24:21;;;;;;;2.53;1.90;;;;;;;;;;5006240;28;20522;-68
2023/04/25 01:26:49;;;;;;;2.60;1.70;;;;;;;;;;5017800;28;20514;-66
2023/04/25 01:29:17;;;;;;;2.15;1.70;;;;;;;;;;5010897;28;20037;-66
2023/04/25 01:31:43;;;;;;;2.20;1.58;;;;;;;;;;5016453;28;20124;-64
2023/04/25 01:34:08;;;;;;;1.85;1.55;;;;;;;;;;5013932;28;20132;-65
2023/04/25 01:36:33;;;;;;;2.43;1.43;;;;;;;;;;5008278;28;20072;-68
2023/04/25 01:38:58;;;;;;;2.10;1.60;;;;;;;;;;5000108;28;20061;-64
2023/04/25 01:41:24;;;;;;;2.17;1.63;;;;;;;;;;5016599;28;20034;-66
2023/04/25 01:43:49;;;;;;;2.67;1.60;;;;;;;;;;4995474;28;20297;-67
2023/04/25 01:46:14;;;;;;;2.67;1.70;;;;;;;;;;4986850;28;20053;-65
2023/04/25 01:48:40;;;;;;;2.53;1.60;;;;;;;;;;5008864;28;20033;-64
2023/04/25 01:51:05;;;;;;;2.20;1.55;;;;;;;;;;4997720;28;20288;-67
2023/04/25 01:53:30;;;;;;;2.33;1.45;;;;;;;;;;5008800;28;20506;-67
2023/04/25 01:55:55;;;;;;;3.37;1.50;;;;;;;;;;5016122;28;20091;-69
2023/04/25 01:58:21;;;;;;;2.20;1.50;;;;;;;;;;5012904;28;20812;-66
2023/04/25 02:00:46;;;;;;;2.27;1.73;;;;;;;;;;4993269;28;20284;-67
2023/04/25 02:03:11;;;;;;;2.13;1.67;;;;;;;;;;5011076;28;20129;-67
2023/04/25 02:05:37;;;;;;;1.77;1.50;;;;;;;;;;5023777;28;20049;-67
2023/04/25 02:08:03;;;;;;;1.80;1.35;;;;;;;;;;4971183;28;21096;-66
2023/04/25 02:10:28;;;;;;;1.90;1.50;;;;;;;;;;4998632;28;20036;-65
2023/04/25 02:12:53;;;;;;;2.05;1.50;;;;;;;;;;5022445;28;20037;-66
2023/04/25 02:15:18;;;;;;;1.97;1.60;;;;;;;;;;5023550;28;20755;-67
2023/04/25 02:17:45;;;;;;;2.72;1.50;;;;;;;;;;5007373;28;20045;-62
2023/04/25 02:20:10;;;;;;;1.70;1.40;;;;;;;;;;5004904;28;20038;-65
2023/04/25 02:22:35;;;;;;;2.22;1.50;;;;;;;;;;5020386;28;20753;-67
2023/04/25 02:25:01;;;;;;;1.88;1.40;;;;;;;;;;5010350;28;20067;-67
2023/04/25 02:27:26;;;;;;;2.03;1.35;;;;;;;;;;5000345;28;20042;-68
2023/04/25 02:29:51;;;;;;;1.97;1.60;;;;;;;;;;4997414;28;20037;-66
2023/04/25 02:32:17;;;;;;;1.95;1.30;;;;;;;;;;5005153;28;20309;-62
2023/04/25 02:34:42;;;;;;;2.10;1.53;;;;;;;;;;5014802;28;20037;-66
2023/04/25 02:37:07;;;;;;;2.10;1.50;;;;;;;;;;5022249;28;20798;-66
2023/04/25 02:39:32;;;;;;;1.83;1.33;;;;;;;;;;5004442;28;20502;-67
2023/04/25 02:41:57;;;;;;;2.00;1.67;;;;;;;;;;5016480;28;20302;-63
2023/04/25 02:44:23;;;;;;;2.70;1.50;;;;;;;;;;5000921;28;20037;-66
2023/04/25 02:46:48;;;;;;;2.00;1.50;;;;;;;;;;5009722;28;20887;-64
2023/04/25 02:49:13;;;;;;;1.60;1.30;;;;;;;;;;5019507;28;20307;-66
2023/04/25 02:51:38;;;;;;;1.90;1.27;;;;;;;;;;5009751;28;20468;-67
2023/04/25 02:54:04;;;;;;;2.17;1.40;;;;;;;;;;5010418;28;20277;-64
2023/04/25 02:56:29;;;;;;;2.38;1.42;;;;;;;;;;4999590;28;20299;-66
2023/04/25 02:58:54;;;;;;;2.72;1.52;;;;;;;;;;5010878;28;20117;-64
2023/04/25 03:01:20;;;;;;;1.60;1.30;;;;;;;;;;5019992;28;20425;-66
2023/04/25 03:03:45;;;;;;;1.70;1.38;;;;;;;;;;5021776;28;20473;-66
2023/04/25 03:06:10;;;;;;;2.05;1.30;;;;;;;;;;5005610;28;20656;-68
2023/04/25 03:08:36;;;;;;;2.10;1.50;;;;;;;;;;5003371;28;20037;-63
2023/04/25 03:11:01;;;;;;;1.95;1.30;;;;;;;;;;5002920;28;20287;-67
2023/04/25 03:13:27;;;;;;;1.90;1.30;;;;;;;;;;4994092;28;20029;-67
2023/04/25 03:15:52;;;;;;;1.45;1.17;;;;;;;;;;5022569;28;20073;-67
2023/04/25 03:18:17;;;;;;;1.80;1.35;;;;;;;;;;5013567;28;20038;-65
2023/04/25 03:20:43;;;;;;;1.77;1.30;;;;;;;;;;5006178;28;20044;-63
2023/04/25 03:23:08;;;;;;;2.13;1.27;;;;;;;;;;5017809;28;20030;-66
2023/04/25 03:25:33;;;;;;;1.90;1.30;;;;;;;;;;5003142;28;20277;-68
2023/04/25 03:27:58;;;;;;;1.47;1.33;;;;;;;;;;4972046;28;20876;-65
2023/04/25 03:30:24;;;;;;;2.10;1.50;;;;;;;;;;5003292;28;21367;-62
2023/04/25 03:32:49;;;;;;;1.70;1.47;;;;;;;;;;5010364;28;20284;-65
2023/04/25 03:35:14;;;;;;;1.67;1.27;;;;;;;;;;5003127;28;20372;-63
2023/04/25 03:37:40;;;;;;;2.38;1.30;;;;;;;;;;5002732;28;20064;-63
2023/04/25 03:40:08;;;;;;;1.60;1.15;;;;;;;;;;4985725;28;20066;-69
2023/04/25 03:42:34;;;;;;;1.63;1.35;;;;;;;;;;5022067;28;20037;-62
2023/04/25 03:44:59;;;;;;;1.52;1.17;;;;;;;;;;5006753;28;20034;-66
2023/04/25 03:47:24;;;;;;;2.38;1.42;;;;;;;;;;5005634;28;20443;-64
2023/04/25 03:49:51;;;;;;;1.70;1.20;;;;;;;;;;5011442;28;20045;-64
2023/04/25 03:52:16;;;;;;;1.80;1.13;;;;;;;;;;5020503;28;20049;-64
2023/04/25 03:54:42;;;;;;;1.85;1.33;;;;;;;;;;4988151;28;21281;-63
2023/04/25 03:57:07;;;;;;;1.70;1.20;;;;;;;;;;4980248;28;20032;-64
2023/04/25 03:59:32;;;;;;;2.87;1.33;;;;;;;;;;5003517;28;20276;-67
2023/04/25 04:01:57;;;;;;;1.80;1.13;;;;;;;;;;5008955;28;20033;-68
2023/04/25 04:04:23;;;;;;;4.90;1.37;;;;;;;;;;5000158;28;20379;-65
2023/04/25 04:06:48;;;;;;;1.90;1.35;;;;;;;;;;5004569;28;20388;-63
2023/04/25 04:09:13;;;;;;;1.90;1.20;;;;;;;;;;5022486;28;20021;-66
2023/04/25 04:11:39;;;;;;;1.85;1.05;;;;;;;;;;5011125;28;20026;-63
2023/04/25 04:14:07;;;;;;;1.80;1.20;;;;;;;;;;5011091;28;20034;-65
2023/04/25 04:16:32;;;;;;;5.70;1.60;;;;;;;;;;4999401;28;20450;-69
2023/04/25 04:18:57;;;;;;;3.70;1.60;;;;;;;;;;5001572;28;20032;-65
2023/04/25 04:21:23;;;;;;;2.43;1.30;;;;;;;;;;5008477;28;20100;-64
2023/04/25 04:23:48;;;;;;;3.27;1.50;;;;;;;;;;5013552;28;20276;-63
2023/04/25 04:26:15;;;;;;;2.83;1.10;;;;;;;;;;4999403;28;20668;-64
2023/04/25 04:28:40;;;;;;;3.90;1.50;;;;;;;;;;5021265;28;20268;-65
2023/04/25 04:31:05;;;;;;;2.42;1.30;;;;;;;;;;5003664;28;20032;-65
2023/04/25 04:33:31;;;;;;;1.83;1.30;;;;;;;;;;5016022;28;20037;-63
2023/04/25 04:35:56;;;;;;;3.60;1.30;;;;;;;;;;5025295;28;20026;-63
2023/04/25 04:38:21;;;;;;;2.33;1.30;;;;;;;;;;5022310;28;20041;-66
2023/04/25 04:40:47;;;;;;;1.83;1.20;;;;;;;;;;5024509;28;20124;-66
2023/04/25 04:43:13;;;;;;;1.63;1.10;;;;;;;;;;5001363;28;21045;-63
2023/04/25 04:45:40;;;;;;;2.83;1.35;;;;;;;;;;5008947;28;20502;-66
2023/04/25 04:48:05;;;;;;;2.42;1.00;;;;;;;;;;5017040;28;20049;-63
2023/04/25 04:50:32;;;;;;;2.25;1.38;;;;;;;;;;5016504;28;20021;-67
2023/04/25 04:52:57;;;;;;;1.90;1.30;;;;;;;;;;5025136;28;20029;-68
2023/04/25 04:55:22;;;;;;;2.57;1.30;;;;;;;;;;5024371;28;20114;-67
2023/04/25 04:57:48;;;;;;;2.00;1.33;;;;;;;;;;5024138;28;20278;-67
2023/04/25 05:00:15;;;;;;;2.55;1.30;;;;;;;;;;5018879;28;20018;-70
2023/04/25 05:02:40;;;;;;;3.17;1.50;;;;;;;;;;4990135;28;20038;-62
2023/04/25 05:05:06;;;;;;;2.97;1.23;;;;;;;;;;5018949;28;20524;-64
2023/04/25 05:07:31;;;;;;;2.92;1.20;;;;;;;;;;5019346;28;20053;-63
2023/04/25 05:09:56;;;;;;;3.33;1.50;;;;;;;;;;5024722;28;20095;-68
2023/04/25 05:12:21;;;;;;;2.57;1.10;;;;;;;;;;5007673;28;20370;-69
2023/04/25 05:14:47;;;;;;;2.87;1.20;;;;;;;;;;5025216;28;20788;-67
2023/04/25 05:17:12;;;;;;;2.20;1.40;;;;;;;;;;5020378;28;20490;-63
2023/04/25 05:19:37;;;;;;;2.65;1.30;;;;;;;;;;5008925;28;20486;-67
2023/04/25 05:22:03;;;;;;;1.75;1.10;;;;;;;;;;5000982;28;20034;-67
2023/04/25 05:24:28;;;;;;;1.80;1.20;;;;;;;;;;5005533;28;20061;-65
2023/04/25 05:26:53;;;;;;;4.50;1.40;;;;;;;;;;5015161;28;20056;-64
2023/04/25 05:29:19;;;;;;;2.03;1.20;;;;;;;;;;5017200;28;20034;-66
2023/04/25 05:31:44;;;;;;;2.17;1.20;;;;;;;;;;5011662;28;20792;-67
2023/04/25 05:34:09;;;;;;;1.95;0.90;;;;;;;;;;5004979;28;20064;-66
2023/04/25 05:36:35;;;;;;;1.58;1.02;;;;;;;;;;5023448;28;20465;-62
2023/04/25 05:39:00;;;;;;;1.90;1.55;;;;;;;;;;5014170;28;20046;-64
2023/04/25 05:41:25;;;;;;;3.00;1.30;;;;;;;;;;5017615;28;20143;-64
2023/04/25 05:43:51;;;;;;;2.23;1.30;;;;;;;;;;5012613;28;20174;-66
2023/04/25 05:46:19;;;;;;;2.53;0.97;;;;;;;;;;5000530;28;20567;-64
2023/04/25 05:48:44;;;;;;;2.97;1.25;;;;;;;;;;5015754;28;20296;-64
2023/04/25 05:51:10;;;;;;;2.53;1.20;;;;;;;;;;5024202;28;20076;-62
2023/04/25 05:53:35;;;;;;;2.03;1.30;;;;;;;;;;5025017;28;20441;-63
2023/04/25 05:56:00;;;;;;;1.80;1.23;;;;;;;;;;5022254;28;20049;-63
2023/04/25 05:58:26;;;;;;;1.95;1.20;;;;;;;;;;5013367;28;20041;-62
2023/04/25 06:00:51;;;;;;;2.03;1.13;;;;;;;;;;5021105;28;20579;-64
2023/04/25 06:03:16;;;;;;;1.90;1.35;;;;;;;;;;5007948;28;20629;-72
2023/04/25 06:05:42;;;;;;;3.38;1.13;;;;;;;;;;5021535;28;20037;-76
2023/04/25 06:08:07;;;;;;;1.80;1.00;;;;;;;;;;5012953;28;20038;-69
2023/04/25 06:10:33;;;;;;;2.72;1.25;;;;;;;;;;5002519;28;20109;-65
2023/04/25 06:12:58;;;;;;;2.40;1.40;;;;;;;;;;5006170;28;20057;-63
2023/04/25 06:15:23;;;;;;;2.17;1.10;;;;;;;;;;5017135;28;20276;-63
2023/04/25 06:17:49;;;;;;;1.97;1.00;;;;;;;;;;5026827;28;20033;-63
2023/04/25 06:20:14;;;;;;;3.67;1.40;;;;;;;;;;5016866;28;20080;-62
2023/04/25 06:22:39;;;;;;;2.00;1.10;;;;;;;;;;5001829;28;20120;-64
2023/04/25 06:25:05;;;;;;;2.80;1.30;;;;;;;;;;5009237;28;20350;-66
2023/04/25 06:27:30;;;;;;;1.90;1.13;;;;;;;;;;4991181;28;20056;-62
2023/04/25 06:29:55;;;;;;;1.77;1.10;;;;;;;;;;5017408;28;20107;-64
2023/04/25 06:32:20;;;;;;;1.80;1.10;;;;;;;;;;5019570;28;20033;-65
2023/04/25 06:34:46;;;;;;;3.20;1.30;;;;;;;;;;5017241;28;20482;-66
2023/04/25 06:37:11;;;;;;;2.57;1.10;;;;;;;;;;5008976;28;20346;-63
2023/04/25 06:39:36;;;;;;;1.83;1.30;;;;;;;;;;5021578;28;20266;-66
2023/04/25 06:42:02;;;;;;;1.77;1.17;;;;;;;;;;5008472;28;20554;-68
2023/04/25 06:44:29;;;;;;;1.40;0.93;;;;;;;;;;5013351;28;20301;-64
2023/04/25 06:46:54;;;;;;;2.40;1.20;;;;;;;;;;5019384;28;20081;-62
2023/04/25 06:49:19;;;;;;;2.33;1.33;;;;;;;;;;5005346;28;20060;-66
2023/04/25 06:51:45;;;;;;;3.07;1.10;;;;;;;;;;5011986;28;20032;-64
2023/04/25 06:54:10;;;;;;;3.00;1.00;;;;;;;;;;5014715;28;20281;-65
2023/04/25 06:56:35;;;;;;;1.70;1.20;;;;;;;;;;5009334;28;20126;-66
2023/04/25 06:59:00;;;;;;;2.65;1.10;;;;;;;;;;4981521;28;20293;-65
2023/04/25 07:01:26;;;;;;;1.50;1.10;;;;;;;;;;4999522;28;20041;-66
2023/04/25 07:03:51;;;;;;;2.27;1.43;;;;;;;;;;5016774;28;20033;-62
2023/04/25 07:06:16;;;;;;;2.10;1.13;;;;;;;;;;4988677;28;20307;-63
2023/04/25 07:08:42;;;;;;;1.58;1.10;;;;;;;;;;5015459;28;20046;-66
2023/04/25 07:11:07;;;;;;;3.27;1.20;;;;;;;;;;5018435;28;20037;-63
2023/04/25 07:13:32;;;;;;;2.43;1.20;;;;;;;;;;5012725;28;20272;-63
2023/04/25 07:15:57;;;;;;;1.48;1.10;;;;;;;;;;5002669;28;20180;-63
2023/04/25 07:18:23;;;;;;;2.50;1.10;;;;;;;;;;5007569;28;20038;-66
2023/04/25 07:20:48;;;;;;;2.10;1.40;;;;;;;;;;4995960;28;20034;-63
2023/04/25 07:23:13;;;;;;;2.13;1.30;;;;;;;;;;5010752;28;20287;-68
2023/04/25 07:25:39;;;;;;;1.45;1.00;;;;;;;;;;5011411;28;20287;-67
2023/04/25 07:28:04;;;;;;;3.03;1.10;;;;;;;;;;5009513;28;20071;-64
2023/04/25 07:30:29;;;;;;;2.35;1.20;;;;;;;;;;5012277;28;20216;-62
2023/04/25 07:32:55;;;;;;;2.30;1.15;;;;;;;;;;5011444;28;20167;-62
2023/04/25 07:35:20;;;;;;;2.00;1.20;;;;;;;;;;4981589;28;20228;-66
2023/04/25 07:37:45;;;;;;;1.90;1.10;;;;;;;;;;5016784;28;20133;-68
2023/04/25 07:40:11;;;;;;;2.73;1.20;;;;;;;;;;5007411;28;20276;-63
2023/04/25 07:42:36;;;;;;;1.70;1.10;;;;;;;;;;5001167;28;20041;-67
2023/04/25 07:45:02;;;;;;;1.50;1.10;;;;;;;;;;5003148;28;20030;-66
2023/04/25 07:47:27;;;;;;;2.55;1.50;;;;;;;;;;4985191;28;20289;-66
2023/04/25 07:49:53;;;;;;;2.17;1.10;;;;;;;;;;4976605;28;20057;-68
2023/04/25 07:52:18;;;;;;;2.63;1.40;;;;;;;;;;5010936;28;20362;-63
2023/04/25 07:54:43;;;;;;;2.03;1.40;;;;;;;;;;5008561;28;20799;-65
2023/04/25 07:57:08;;;;;;;2.17;1.43;;;;;;;;;;5009586;28;20356;-63
2023/04/25 07:59:34;;;;;;;2.17;1.20;;;;;;;;;;5017402;28;20034;-64
2023/04/25 08:02:00;;;;;;;1.90;1.10;;;;;;;;;;5014607;28;20288;-64
2023/04/25 08:04:25;;;;;;;1.73;1.10;;;;;;;;;;5001280;28;20037;-61
2023/04/25 08:06:51;;;;;;;2.08;1.50;;;;;;;;;;5022501;28;20462;-63
2023/04/25 08:09:16;;;;;;;2.58;1.30;;;;;;;;;;5013970;28;20040;-68
2023/04/25 08:11:41;;;;;;;3.03;1.60;;;;;;;;;;5014484;28;20125;-64
2023/04/25 08:14:07;;;;;;;1.85;1.30;;;;;;;;;;5017047;28;20045;-65
2023/04/25 08:16:32;;;;;;;1.98;1.27;;;;;;;;;;5011523;28;20044;-62
2023/04/25 08:18:57;;;;;;;2.50;1.40;;;;;;;;;;5021251;28;20038;-63
2023/04/25 08:21:22;;;;;;;2.17;1.30;;;;;;;;;;5019018;28;20042;-61
2023/04/25 08:23:48;;;;;;;2.70;1.40;;;;;;;;;;5010241;28;20811;-65
2023/04/25 08:26:13;;;;;;;2.13;1.40;;;;;;;;;;5007879;28;20034;-64
2023/04/25 08:28:38;;;;;;;2.53;1.30;;;;;;;;;;5018321;28;20285;-60
2023/04/25 08:31:03;;;;;;;2.27;1.27;;;;;;;;;;5021404;28;20300;-63
2023/04/25 08:33:29;;;;;;;2.20;1.45;;;;;;;;;;5020801;28;20848;-63
2023/04/25 08:35:55;;;;;;;2.22;1.25;;;;;;;;;;5002481;28;20104;-62
2023/04/25 08:38:21;;;;;;;2.03;1.30;;;;;;;;;;5015297;28;21121;-61
2023/04/25 08:40:46;;;;;;;2.13;1.50;;;;;;;;;;5018083;28;20049;-64
2023/04/25 08:43:13;;;;;;;2.33;1.48;;;;;;;;;;4988324;28;20038;-69
2023/04/25 08:45:38;;;;;;;2.40;1.17;;;;;;;;;;5006420;28;20116;-64
2023/04/25 08:48:04;;;;;;;2.30;1.35;;;;;;;;;;5006269;28;20538;-69
2023/04/25 08:50:30;;;;;;;2.42;1.40;;;;;;;;;;4992692;28;20052;-63
2023/04/25 08:52:55;;;;;;;2.50;1.60;;;;;;;;;;5011776;28;20132;-60
2023/04/25 08:55:20;;;;;;;3.15;1.58;;;;;;;;;;4999297;28;20061;-60
2023/04/25 08:57:46;;;;;;;1.80;1.25;;;;;;;;;;4997483;28;20619;-60
2023/04/25 09:00:12;;;;;;;4.72;2.78;;;;;;;;;;5013554;28;20042;-62
2023/04/25 09:02:38;;;;;;;5.28;2.67;;;;;;;;;;4999205;28;20041;-62
2023/04/25 09:05:04;;;;;;;4.53;2.50;;;;;;;;;;4998205;28;20034;-62
2023/04/25 09:07:29;;;;;;;5.38;3.05;;;;;;;;;;4994142;28;20099;-62
2023/04/25 09:09:55;;;;;;;5.03;2.70;;;;;;;;;;4995773;28;20025;-63
2023/04/25 09:12:20;;;;;;;4.68;2.60;;;;;;;;;;5005504;28;20042;-62
2023/04/25 09:15:08;;;;;;;5.05;2.40;;;;;;;;;;5001254;28;20044;-62
2023/04/25 09:17:33;;;;;;;6.13;2.33;;;;;;;;;;5006707;28;20506;-64
2023/04/25 09:20:11;;;;;;;4.00;2.40;;;;;;;;;;5014784;28;20037;-62
2023/04/25 09:22:37;;;;;;;3.20;2.25;;;;;;;;;;5006250;28;20054;-62
2023/04/25 09:25:03;;;;;;;3.78;2.10;;;;;;;;;;5013726;28;20068;-62
2023/04/25 09:27:28;;;;;;;5.57;2.67;;;;;;;;;;5018087;28;20107;-62
2023/04/25 09:29:57;;;;;;;4.17;2.73;;;;;;;;;;5013116;28;20468;-62
2023/04/25 09:32:23;;;;;;;5.82;2.75;;;;;;;;;;5020398;28;20033;-62
2023/04/25 09:34:49;;;;;;;3.97;2.50;;;;;;;;;;5015204;28;20049;-62
2023/04/25 09:37:21;;;;;;;4.13;2.70;;;;;;;;;;4991777;28;20045;-63
2023/04/25 09:39:50;;;;;;;6.25;2.85;;;;;;;;;;4973221;28;20065;-64
2023/04/25 09:42:16;;;;;;;4.28;2.63;;;;;;;;;;4979027;28;20029;-62
2023/04/25 09:44:42;;;;;;;4.35;2.50;;;;;;;;;;4979795;28;20026;-62
2023/04/25 09:47:09;;;;;;;3.95;2.45;;;;;;;;;;5000317;28;20068;-62
2023/04/25 09:49:34;;;;;;;6.55;2.53;;;;;;;;;;4994368;28;20131;-63
2023/04/25 09:52:00;;;;;;;4.33;2.20;;;;;;;;;;5009258;28;20065;-63
2023/04/25 09:54:25;;;;;;;3.58;2.33;;;;;;;;;;5024038;28;20279;-62
2023/04/25 09:56:53;;;;;;;4.43;2.00;;;;;;;;;;5021098;28;20037;-61
2023/04/25 09:59:19;;;;;;;3.38;2.17;;;;;;;;;;5003497;28;20398;-61
2023/04/25 10:01:45;;;;;;;3.40;1.88;;;;;;;;;;4986896;28;20038;-61
2023/04/25 10:04:10;;;;;;;4.22;2.00;;;;;;;;;;5018364;28;20139;-61
2023/04/25 10:06:36;;;;;;;3.50;1.83;;;;;;;;;;4990804;28;20856;-61
2023/04/25 10:09:03;;;;;;;2.10;1.77;;;;;;;;;;5001632;28;20044;-61
2023/04/25 10:11:28;;;;;;;4.15;1.90;;;;;;;;;;5012349;28;20049;-61
2023/04/25 10:13:54;;;;;;;3.10;1.93;;;;;;;;;;5001068;28;20037;-59
2023/04/25 10:16:19;;;;;;;2.50;1.80;;;;;;;;;;5018224;28;20043;-61
2023/04/25 10:18:44;;;;;;;2.60;1.90;;;;;;;;;;5022734;28;20572;-61
2023/04/25 10:21:09;;;;;;;2.88;1.83;;;;;;;;;;5018259;28;20505;-61
2023/04/25 10:23:35;;;;;;;3.50;2.10;;;;;;;;;;5000922;28;20442;-61
2023/04/25 10:26:00;;;;;;;5.10;2.20;;;;;;;;;;5014410;28;20372;-61
2023/04/25 10:28:25;;;;;;;4.82;2.00;;;;;;;;;;5014311;28;20061;-61
2023/04/25 10:30:58;;;;;;;3.40;2.33;;;;;;;;;;5009712;28;20026;-61
2023/04/25 10:33:43;;;;;;;4.68;1.85;;;;;;;;;;4983047;28;20965;-61
2023/04/25 10:36:12;;;;;;;4.57;2.10;;;;;;;;;;5009282;28;20041;-62
2023/04/25 10:38:38;;;;;;;3.97;2.13;;;;;;;;;;4981396;28;20054;-62
2023/04/25 10:41:04;;;;;;;3.85;2.05;;;;;;;;;;4976188;28;20046;-61
2023/04/25 10:43:42;;;;;;;2.50;1.75;;;;;;;;;;4990569;28;20924;-61
2023/04/25 10:46:14;;;;;;;5.57;2.53;;;;;;;;;;4992742;28;20041;-61
2023/04/25 10:48:43;;;;;;;4.63;2.55;;;;;;;;;;4997382;28;20081;-65
2023/04/25 10:51:12;;;;;;;3.10;2.07;;;;;;;;;;5000413;28;20042;-67
2023/04/25 10:53:37;;;;;;;3.90;2.30;;;;;;;;;;4999886;28;20139;-63
2023/04/25 10:56:09;;;;;;;3.77;2.30;;;;;;;;;;4999715;28;20502;-62
2023/04/25 10:58:35;;;;;;;4.78;2.10;;;;;;;;;;4981736;28;20338;-64
2023/04/25 11:01:01;;;;;;;4.23;2.10;;;;;;;;;;5001469;28;20521;-65
2023/04/25 11:03:26;;;;;;;3.50;1.92;;;;;;;;;;5002721;28;20865;-66
2023/04/25 11:05:51;;;;;;;3.33;1.98;;;;;;;;;;4996488;28;20062;-65
2023/04/25 11:08:17;;;;;;;3.33;1.88;;;;;;;;;;4999502;28;20045;-66
2023/04/25 11:10:42;;;;;;;5.53;2.30;;;;;;;;;;4981192;28;20117;-66
2023/04/25 11:13:07;;;;;;;4.60;2.20;;;;;;;;;;5000235;28;20061;-63
2023/04/25 11:15:32;;;;;;;3.83;2.43;;;;;;;;;;4996977;28;20445;-67
2023/04/25 11:17:58;;;;;;;4.73;2.60;;;;;;;;;;4998209;28;20292;-68
2023/04/25 11:20:25;;;;;;;4.07;2.37;;;;;;;;;;4999993;28;20096;-66
2023/04/25 11:22:50;;;;;;;4.35;2.35;;;;;;;;;;5001697;28;20464;-62
2023/04/25 11:25:16;;;;;;;2.93;2.20;;;;;;;;;;4998568;28;20125;-64
2023/04/25 11:27:55;;;;;;;5.18;2.30;;;;;;;;;;5002230;28;20080;-62
2023/04/25 11:30:21;;;;;;;6.47;2.50;;;;;;;;;;4993097;28;20171;-63
2023/04/25 11:32:46;;;;;;;3.08;2.13;;;;;;;;;;4996555;28;20100;-60
2023/04/25 11:35:12;;;;;;;4.65;2.35;;;;;;;;;;5000341;28;20035;-62
2023/04/25 11:37:40;;;;;;;4.63;2.22;;;;;;;;;;4988337;28;20058;-63
2023/04/25 11:40:06;;;;;;;3.63;2.35;;;;;;;;;;5000441;28;20061;-61
2023/04/25 11:42:32;;;;;;;2.85;2.15;;;;;;;;;;5002597;28;20077;-62
2023/04/25 11:44:57;;;;;;;3.25;2.05;;;;;;;;;;4988926;28;20469;-63
2023/04/25 11:47:27;;;;;;;4.05;2.30;;;;;;;;;;4996701;28;20399;-61
2023/04/25 11:49:53;;;;;;;4.70;2.55;;;;;;;;;;5001397;28;20041;-61
2023/04/25 11:52:18;;;;;;;4.00;2.30;;;;;;;;;;4996042;28;20042;-61
2023/04/25 11:54:44;;;;;;;4.17;2.23;;;;;;;;;;4997205;28;20045;-61
2023/04/25 11:57:09;;;;;;;3.40;2.40;;;;;;;;;;4989311;28;20898;-61
2023/04/25 11:59:34;;;;;;;3.53;2.10;;;;;;;;;;5001729;28;20472;-61
2023/04/25 12:02:01;;;;;;;4.17;2.70;;;;;;;;;;4989576;28;20288;-61
2023/04/25 12:04:29;;;;;;;3.47;2.20;;;;;;;;;;4991847;28;20436;-62
2023/04/25 12:06:55;;;;;;;3.45;2.00;;;;;;;;;;4996753;28;20062;-69
2023/04/25 12:09:23;;;;;;;3.72;2.08;;;;;;;;;;4990332;28;20046;-65
2023/04/25 12:11:54;;;;;;;3.70;2.17;;;;;;;;;;4990420;28;20041;-67
2023/04/25 12:14:26;;;;;;;4.82;2.40;;;;;;;;;;5005100;28;20037;-67
2023/04/25 12:16:52;;;;;;;3.88;2.30;;;;;;;;;;4991533;28;20030;-66
2023/04/25 12:19:18;;;;;;;4.07;2.20;;;;;;;;;;5002312;28;20053;-62
2023/04/25 12:21:43;;;;;;;2.67;1.90;;;;;;;;;;4996421;28;20030;-63
2023/04/25 12:24:13;;;;;;;3.03;2.08;;;;;;;;;;4995866;28;20332;-64
2023/04/25 12:26:50;;;;;;;4.75;2.40;;;;;;;;;;4997263;28;20073;-71
2023/04/25 12:29:20;;;;;;;2.40;1.35;;;;;;;;;;4994148;28;20052;-69
2023/04/25 12:31:45;;;;;;;1.70;0.80;;;;;;;;;;4999460;28;20117;-67
2023/04/25 12:34:10;;;;;;;2.45;1.08;;;;;;;;;;4989829;28;20046;-65
2023/04/25 12:36:36;;;;;;;2.08;1.10;;;;;;;;;;4995333;28;20473;-63
2023/04/25 12:39:04;;;;;;;1.53;1.00;;;;;;;;;;5009558;28;20514;-69
2023/04/25 12:41:29;;;;;;;3.67;0.90;;;;;;;;;;5009877;28;20304;-70
2023/04/25 12:43:54;;;;;;;1.95;1.10;;;;;;;;;;5014257;28;20048;-65
2023/04/25 12:46:20;;;;;;;2.75;1.40;;;;;;;;;;5001279;28;20049;-66
2023/04/25 12:48:45;;;;;;;2.88;1.55;;;;;;;;;;4999658;28;20056;-71
2023/04/25 12:51:10;;;;;;;2.83;1.60;;;;;;;;;;4997333;28;20072;-63
2023/04/25 12:53:37;;;;;;;2.00;1.20;;;;;;;;;;4980676;28;20877;-68
2023/04/25 12:56:02;;;;;;;2.63;1.70;;;;;;;;;;5017178;28;20355;-62
2023/04/25 12:58:28;;;;;;;3.42;1.58;;;;;;;;;;5018776;28;20121;-67
2023/04/25 13:00:53;;;;;;;3.13;1.50;;;;;;;;;;5019923;28;20029;-65
2023/04/25 13:03:18;;;;;;;2.45;1.42;;;;;;;;;;4994014;28;20403;-66
2023/04/25 13:05:43;;;;;;;3.57;1.80;;;;;;;;;;4974657;28;20026;-67
2023/04/25 13:08:09;;;;;;;2.90;1.77;;;;;;;;;;4995876;28;20828;-68
2023/04/25 13:10:35;;;;;;;2.40;1.40;;;;;;;;;;4988292;28;20744;-62
2023/04/25 13:13:01;;;;;;;3.03;1.85;;;;;;;;;;4999835;28;20042;-69
2023/04/25 13:15:26;;;;;;;3.75;1.52;;;;;;;;;;5013644;28;20100;-62
2023/04/25 13:17:52;;;;;;;4.63;1.55;;;;;;;;;;4975689;28;20033;-62
2023/04/25 13:20:18;;;;;;;3.08;1.65;;;;;;;;;;4976561;28;20025;-67
2023/04/25 13:22:45;;;;;;;2.80;1.55;;;;;;;;;;5018425;28;20021;-67
2023/04/25 13:25:10;;;;;;;2.42;1.50;;;;;;;;;;4984068;28;20037;-62
2023/04/25 13:27:36;;;;;;;2.87;1.70;;;;;;;;;;5012258;28;20421;-63
2023/04/25 13:30:04;;;;;;;4.20;1.70;;;;;;;;;;5018775;28;20357;-65
2023/04/25 13:32:29;;;;;;;3.65;1.60;;;;;;;;;;5016404;28;20026;-64
2023/04/25 13:34:55;;;;;;;3.37;1.60;;;;;;;;;;5004808;28;20398;-63
2023/04/25 13:37:23;;;;;;;2.60;1.52;;;;;;;;;;4987479;28;20487;-63
2023/04/25 13:39:49;;;;;;;3.70;1.67;;;;;;;;;;5014865;28;20114;-65
2023/04/25 13:42:15;;;;;;;2.80;1.67;;;;;;;;;;5010203;28;20183;-64
2023/04/25 13:44:41;;;;;;;2.75;1.70;;;;;;;;;;5001720;28;20041;-62
2023/04/25 13:47:06;;;;;;;2.90;1.60;;;;;;;;;;5016002;28;20513;-63
2023/04/25 13:49:31;;;;;;;2.53;1.67;;;;;;;;;;5013149;28;20487;-62
2023/04/25 13:51:56;;;;;;;3.23;1.43;;;;;;;;;;5011306;28;20786;-62
2023/04/25 13:54:22;;;;;;;2.93;1.53;;;;;;;;;;5004200;28;20390;-61
2023/04/25 13:56:48;;;;;;;2.38;1.60;;;;;;;;;;5019959;28;20261;-61
2023/04/25 13:59:13;;;;;;;2.50;1.65;;;;;;;;;;5004320;28;20038;-62
2023/04/25 14:01:39;;;;;;;2.57;1.83;;;;;;;;;;5014321;28;20042;-61
2023/04/25 14:04:04;;;;;;;3.13;1.80;;;;;;;;;;5017406;28;20044;-62
2023/04/25 14:06:30;;;;;;;3.17;2.05;;;;;;;;;;5015902;28;21299;-61
2023/04/25 14:08:56;;;;;;;3.20;1.70;;;;;;;;;;5004906;28;20434;-61
2023/04/25 14:11:21;;;;;;;2.92;1.60;;;;;;;;;;4990529;28;20037;-61
2023/04/25 14:13:47;;;;;;;3.60;1.80;;;;;;;;;;5013341;28;20030;-64
2023/04/25 14:16:13;;;;;;;3.20;1.45;;;;;;;;;;5010335;28;20363;-66
2023/04/25 14:18:38;;;;;;;2.10;1.30;;;;;;;;;;4990217;28;20113;-65
2023/04/25 14:21:03;;;;;;;2.47;1.40;;;;;;;;;;5008552;28;20068;-65
2023/04/25 14:23:29;;;;;;;3.67;1.80;;;;;;;;;;5020147;28;20300;-62
2023/04/25 14:25:55;;;;;;;2.77;1.27;;;;;;;;;;5014091;28;20177;-63
2023/04/25 14:28:20;;;;;;;2.50;1.40;;;;;;;;;;5015795;28;20072;-64
2023/04/25 14:30:45;;;;;;;2.53;1.60;;;;;;;;;;5003819;28;20045;-61
2023/04/25 14:33:11;;;;;;;2.73;1.60;;;;;;;;;;4992920;28;20038;-61
2023/04/25 14:35:36;;;;;;;2.30;1.60;;;;;;;;;;5004208;28;20037;-66